Terminal Aerodrome Forecast
Issued by NWS

Home | Current Version | Previous Version | Text Only | Print | Product List | Glossary On
Versions: 1 2 3 4 5 6 7 8 9 10 11 12 13 14 15
628
FTUS44 KBMX 222343
TAFTCL
TAF
KTCL 222343Z 2300/2324 19004KT P6SM -RA OVC070
     FM230300 18006KT 5SM -SHRA OVC025
     FM230600 22007KT 4SM SHRA BR OVC008
     FM231100 28008KT P6SM OVC008=

USA.gov is the U.S. government's official web portal to all federal, state and local government web resources and services.